createdAt,value
2022-07-30T00:01:47.707Z,19.98
2022-07-30T00:04:15.401Z,19.98
2022-07-30T00:06:43.054Z,19.97
2022-07-30T00:09:10.711Z,19.96
2022-07-30T00:11:38.460Z,19.95
2022-07-30T00:14:06.098Z,19.94
2022-07-30T00:16:33.836Z,19.94
2022-07-30T00:19:02.235Z,19.93
2022-07-30T00:21:38.514Z,19.92
2022-07-30T00:24:08.651Z,19.91
2022-07-30T00:26:36.415Z,19.90
2022-07-30T00:29:05.092Z,19.88
2022-07-30T00:31:33.140Z,19.86
2022-07-30T00:34:00.821Z,19.84
2022-07-30T00:36:28.620Z,19.83
2022-07-30T00:38:56.387Z,19.82
2022-07-30T00:41:24.926Z,19.81
2022-07-30T00:43:52.589Z,19.81
2022-07-30T00:46:20.394Z,19.80
2022-07-30T00:48:48.112Z,19.79
2022-07-30T00:51:15.831Z,19.79
2022-07-30T00:53:43.505Z,19.78
2022-07-30T00:56:11.230Z,19.78
2022-07-30T00:58:38.821Z,19.78
2022-07-30T01:01:06.512Z,19.78
2022-07-30T01:03:34.146Z,19.78
2022-07-30T01:06:01.841Z,19.77
2022-07-30T01:08:29.566Z,19.76
2022-07-30T01:10:57.246Z,19.76
2022-07-30T01:13:24.917Z,19.76
2022-07-30T01:15:52.701Z,19.75
2022-07-30T01:18:22.050Z,19.75
2022-07-30T01:21:09.612Z,19.75
2022-07-30T01:23:43.605Z,19.74
2022-07-30T01:26:14.552Z,19.74
2022-07-30T01:28:45.776Z,19.72
2022-07-30T01:31:14.992Z,19.71
2022-07-30T01:33:45.879Z,19.68
2022-07-30T01:36:17.896Z,19.65
2022-07-30T01:38:46.776Z,19.63
2022-07-30T01:41:16.291Z,19.61
2022-07-30T01:43:46.804Z,19.59
2022-07-30T01:46:17.644Z,19.57
2022-07-30T01:48:46.073Z,19.55
2022-07-30T01:51:14.428Z,19.52
2022-07-30T01:53:43.184Z,19.49
2022-07-30T01:56:16.601Z,19.48
2022-07-30T01:58:47.646Z,19.46
2022-07-30T02:01:15.717Z,19.46
2022-07-30T02:03:43.605Z,19.44
2022-07-30T02:06:20.039Z,19.42
2022-07-30T02:08:57.550Z,19.40
2022-07-30T02:11:44.089Z,19.38
2022-07-30T02:14:22.553Z,19.37
2022-07-30T02:16:56.235Z,19.37
2022-07-30T02:19:32.610Z,19.35
2022-07-30T02:22:06.783Z,19.33
2022-07-30T02:24:37.573Z,19.33
2022-07-30T02:27:10.559Z,19.31
2022-07-30T02:29:38.838Z,19.30
2022-07-30T02:32:09.861Z,19.30
2022-07-30T02:34:40.523Z,19.71
2022-07-30T02:37:11.339Z,21.85
2022-07-30T02:39:40.482Z,24.01
2022-07-30T02:42:09.211Z,25.26
2022-07-30T02:44:38.575Z,25.56
2022-07-30T02:47:07.153Z,24.27
2022-07-30T02:49:36.822Z,23.02
2022-07-30T02:52:05.418Z,22.13
2022-07-30T02:54:33.607Z,21.50
2022-07-30T02:57:02.947Z,21.41
2022-07-30T02:59:32.269Z,23.15
2022-07-30T03:02:00.897Z,24.82
2022-07-30T03:04:29.680Z,25.33
2022-07-30T03:06:59.912Z,24.07
2022-07-30T03:09:50.794Z,22.77
2022-07-30T03:12:19.290Z,21.78
2022-07-30T03:14:47.060Z,21.16
2022-07-30T03:17:15.911Z,20.68
2022-07-30T03:19:45.785Z,20.64
2022-07-30T03:22:15.416Z,22.43
2022-07-30T03:24:44.315Z,23.94
2022-07-30T03:27:13.860Z,23.07
2022-07-30T03:29:42.078Z,21.97
2022-07-30T03:32:13.634Z,21.21
2022-07-30T03:34:43.703Z,20.64
2022-07-30T03:37:12.822Z,20.57
2022-07-30T03:39:40.864Z,22.28
2022-07-30T03:42:09.144Z,23.77
2022-07-30T03:44:38.627Z,22.91
2022-07-30T03:47:07.228Z,21.83
2022-07-30T03:49:35.116Z,21.08
2022-07-30T03:52:04.393Z,20.55
2022-07-30T03:54:35.674Z,20.56
2022-07-30T03:57:04.778Z,22.41
2022-07-30T03:59:33.303Z,23.91
2022-07-30T04:02:06.741Z,22.99
2022-07-30T04:04:35.283Z,21.80
2022-07-30T04:07:03.065Z,21.02
2022-07-30T04:09:30.961Z,20.49
2022-07-30T04:11:59.029Z,20.48
2022-07-30T04:14:26.960Z,22.30
2022-07-30T04:17:00.824Z,23.84
2022-07-30T04:19:31.534Z,23.00
2022-07-30T04:22:01.918Z,21.93
2022-07-30T04:24:31.490Z,21.22
2022-07-30T04:27:00.731Z,21.12
2022-07-30T04:29:28.949Z,22.88
2022-07-30T04:31:56.893Z,24.34
2022-07-30T04:34:24.580Z,23.49
2022-07-30T04:36:52.203Z,22.41
2022-07-30T04:39:19.918Z,21.64
2022-07-30T04:41:48.954Z,21.11
2022-07-30T04:44:20.835Z,21.11
2022-07-30T04:46:48.623Z,22.92
2022-07-30T04:49:18.328Z,24.67
2022-07-30T04:51:47.028Z,25.27
2022-07-30T04:54:16.186Z,24.13
2022-07-30T04:56:53.411Z,22.99
2022-07-30T04:59:25.034Z,22.19
2022-07-30T05:01:55.867Z,22.04
2022-07-30T05:04:25.027Z,23.77
2022-07-30T05:06:54.003Z,25.20
2022-07-30T05:09:22.637Z,24.36
2022-07-30T05:11:54.633Z,23.35
2022-07-30T05:14:23.803Z,22.65
2022-07-30T05:16:52.530Z,22.17
2022-07-30T05:19:21.905Z,21.79
2022-07-30T05:21:49.699Z,21.85
2022-07-30T05:24:17.491Z,23.59
2022-07-30T05:26:46.373Z,25.02
2022-07-30T05:29:18.075Z,24.22
2022-07-30T05:31:48.719Z,23.16
2022-07-30T05:34:16.540Z,22.46
2022-07-30T05:36:45.185Z,21.97
2022-07-30T05:39:13.461Z,21.60
2022-07-30T05:41:41.144Z,21.70
2022-07-30T05:44:08.899Z,23.47
2022-07-30T05:46:36.688Z,24.85
2022-07-30T05:49:05.592Z,24.18
2022-07-30T05:51:33.276Z,23.19
2022-07-30T05:54:00.912Z,22.49
2022-07-30T05:56:28.541Z,21.99
2022-07-30T05:58:56.201Z,21.98
2022-07-30T06:01:24.019Z,23.69
2022-07-30T06:03:51.816Z,25.07
2022-07-30T06:06:22.854Z,24.25
2022-07-30T06:08:51.234Z,23.21
2022-07-30T06:11:18.879Z,22.45
2022-07-30T06:13:46.511Z,21.89
2022-07-30T06:16:14.159Z,21.82
2022-07-30T06:18:41.828Z,23.49
2022-07-30T06:21:09.547Z,24.87
2022-07-30T06:23:37.172Z,24.03
2022-07-30T06:26:04.875Z,22.96
2022-07-30T06:28:38.161Z,22.22
2022-07-30T06:31:07.112Z,21.63
2022-07-30T06:33:34.893Z,21.58
2022-07-30T06:36:02.608Z,23.29
2022-07-30T06:38:30.508Z,24.74
2022-07-30T06:41:03.020Z,23.95
2022-07-30T06:43:32.429Z,22.86
2022-07-30T06:46:00.902Z,22.14
2022-07-30T06:48:31.141Z,21.63
2022-07-30T06:50:59.149Z,21.64
2022-07-30T06:53:27.233Z,23.41
2022-07-30T06:56:00.292Z,24.86
2022-07-30T06:58:29.300Z,24.05
2022-07-30T07:00:57.158Z,23.07
2022-07-30T07:03:26.354Z,22.41
2022-07-30T07:06:07.442Z,21.94
2022-07-30T07:08:38.512Z,21.96
2022-07-30T07:11:06.516Z,23.77
2022-07-30T07:13:34.429Z,25.28
2022-07-30T07:16:02.566Z,24.54
2022-07-30T07:18:30.520Z,23.59
2022-07-30T07:20:58.250Z,22.94
2022-07-30T07:23:25.891Z,22.51
2022-07-30T07:26:09.272Z,22.70
2022-07-30T07:28:36.948Z,24.65
2022-07-30T07:31:05.123Z,26.08
2022-07-30T07:33:32.894Z,25.22
2022-07-30T07:36:00.742Z,24.21
2022-07-30T07:38:28.679Z,23.50
2022-07-30T07:40:56.330Z,23.03
2022-07-30T07:43:25.318Z,22.70
2022-07-30T07:45:53.112Z,22.78
2022-07-30T07:48:20.816Z,24.55
2022-07-30T07:50:48.641Z,26.04
2022-07-30T07:53:16.496Z,25.30
2022-07-30T07:55:44.394Z,24.32
2022-07-30T07:58:16.420Z,23.69
2022-07-30T08:00:49.920Z,23.26
2022-07-30T08:03:17.669Z,22.96
2022-07-30T08:05:54.418Z,23.10
2022-07-30T08:08:33.292Z,25.23
2022-07-30T08:11:00.885Z,26.73
2022-07-30T08:13:52.332Z,25.99
2022-07-30T08:16:16.359Z,24.96
2022-07-30T08:18:44.012Z,24.41
2022-07-30T08:21:11.731Z,24.05
2022-07-30T08:23:42.471Z,23.78
2022-07-30T08:26:10.430Z,23.57
2022-07-30T08:28:38.489Z,23.38
2022-07-30T08:31:06.419Z,23.55
2022-07-30T08:34:13.784Z,25.41
2022-07-30T08:36:42.205Z,26.83
2022-07-30T08:39:10.024Z,25.97
2022-07-30T08:41:37.907Z,25.25
2022-07-30T08:44:12.819Z,24.81
2022-07-30T08:46:47.260Z,24.55
2022-07-30T08:49:16.063Z,24.39
2022-07-30T08:51:43.817Z,24.25
2022-07-30T08:54:11.782Z,24.13
2022-07-30T08:56:39.559Z,24.03
2022-07-30T08:59:07.747Z,23.91
2022-07-30T09:01:35.564Z,23.78
2022-07-30T09:06:37.050Z,25.75
2022-07-30T09:09:04.719Z,27.19
2022-07-30T09:11:35.906Z,26.52
2022-07-30T09:14:11.502Z,25.62
2022-07-30T09:16:40.079Z,24.98
2022-07-30T09:19:17.280Z,24.59
2022-07-30T09:21:58.220Z,24.26
2022-07-30T09:24:26.905Z,24.02
2022-07-30T09:27:10.166Z,24.18
2022-07-30T09:29:37.861Z,26.22
2022-07-30T09:32:08.154Z,27.70
2022-07-30T09:34:40.196Z,26.94
2022-07-30T09:37:10.890Z,26.02
2022-07-30T09:39:41.312Z,25.40
2022-07-30T09:42:19.800Z,25.01
2022-07-30T09:44:48.168Z,24.70
2022-07-30T09:47:31.747Z,24.48
2022-07-30T09:50:29.840Z,24.26
2022-07-30T09:53:09.480Z,24.69
2022-07-30T09:55:42.087Z,26.83
2022-07-30T09:58:12.829Z,28.11
2022-07-30T10:01:01.283Z,27.07
2022-07-30T10:03:33.956Z,26.11
2022-07-30T10:06:06.112Z,25.31
2022-07-30T10:08:51.363Z,24.82
2022-07-30T10:11:24.468Z,24.43
2022-07-30T10:13:56.148Z,24.12
2022-07-30T10:16:29.727Z,23.83
2022-07-30T10:19:00.214Z,23.98
2022-07-30T10:21:28.531Z,25.71
2022-07-30T10:24:00.398Z,27.03
2022-07-30T10:26:28.715Z,26.25
2022-07-30T10:28:57.052Z,25.31
2022-07-30T10:31:48.145Z,24.65
2022-07-30T10:34:17.048Z,24.16
2022-07-30T10:36:51.215Z,24.28
2022-07-30T10:39:26.417Z,26.07
2022-07-30T10:42:11.132Z,27.97
2022-07-30T10:45:02.112Z,28.73
2022-07-30T10:47:34.676Z,27.16
2022-07-30T10:50:32.911Z,25.90
2022-07-30T10:53:01.748Z,25.58
2022-07-30T10:55:38.926Z,27.17
2022-07-30T10:58:10.306Z,28.13
2022-07-30T11:00:53.535Z,27.01
2022-07-30T11:03:23.854Z,25.77
2022-07-30T11:06:15.577Z,25.41
2022-07-30T11:08:48.213Z,26.95
2022-07-30T11:11:28.691Z,27.96
2022-07-30T11:14:09.974Z,26.69
2022-07-30T11:16:40.595Z,25.62
2022-07-30T11:19:55.708Z,24.82
2022-07-30T11:22:24.012Z,24.14
2022-07-30T11:24:51.776Z,24.21
2022-07-30T11:27:48.875Z,25.90
2022-07-30T11:30:16.957Z,27.06
2022-07-30T11:32:49.378Z,26.06
2022-07-30T11:35:34.928Z,25.10
2022-07-30T11:38:18.739Z,24.41
2022-07-30T11:40:49.901Z,24.44
2022-07-30T11:43:37.065Z,26.19
2022-07-30T11:46:16.481Z,27.38
2022-07-30T11:49:08.372Z,26.28
2022-07-30T11:51:43.750Z,25.09
2022-07-30T11:54:12.561Z,24.34
2022-07-30T11:56:53.190Z,24.19
2022-07-30T11:59:20.989Z,25.88
2022-07-30T12:01:53.306Z,27.10
2022-07-30T12:04:21.065Z,26.16
2022-07-30T12:06:49.082Z,25.02
2022-07-30T12:09:27.403Z,24.22
2022-07-30T12:11:56.719Z,24.07
2022-07-30T12:14:24.684Z,25.69
2022-07-30T12:16:54.571Z,26.89
2022-07-30T12:19:22.332Z,25.93
2022-07-30T12:21:53.261Z,24.81
2022-07-30T12:24:26.817Z,23.99
2022-07-30T12:27:07.629Z,23.85
2022-07-30T12:29:35.888Z,25.61
2022-07-30T12:32:03.904Z,26.85
2022-07-30T12:34:31.639Z,25.95
2022-07-30T12:37:10.230Z,24.83
2022-07-30T12:39:38.143Z,24.50
2022-07-30T12:42:18.848Z,26.08
2022-07-30T12:44:49.160Z,27.20
2022-07-30T12:47:24.949Z,26.17
2022-07-30T12:49:54.361Z,25.04
2022-07-30T12:52:28.488Z,24.67
2022-07-30T12:55:11.702Z,26.20
2022-07-30T12:57:56.480Z,27.30
2022-07-30T13:00:30.428Z,26.10
2022-07-30T13:02:59.340Z,24.97
2022-07-30T13:05:50.314Z,24.63
2022-07-30T13:08:18.500Z,26.34
2022-07-30T13:10:58.253Z,27.97
2022-07-30T13:13:31.133Z,28.57
2022-07-30T13:16:03.418Z,27.21
2022-07-30T13:18:32.576Z,26.07
2022-07-30T13:21:01.759Z,25.36
2022-07-30T13:23:29.996Z,25.34
2022-07-30T13:25:58.135Z,27.05
2022-07-30T13:28:26.148Z,28.35
2022-07-30T13:30:53.961Z,27.56
2022-07-30T13:33:21.583Z,26.58
2022-07-30T13:35:49.220Z,25.89
2022-07-30T13:38:16.990Z,25.39
2022-07-30T13:40:44.830Z,25.43
2022-07-30T13:43:12.470Z,27.16
2022-07-30T13:45:40.204Z,28.56
2022-07-30T13:48:07.924Z,27.94
2022-07-30T13:50:35.674Z,27.16
2022-07-30T13:53:03.464Z,26.65
2022-07-30T13:55:31.270Z,26.28
2022-07-30T13:57:59.828Z,25.98
2022-07-30T14:00:34.250Z,25.70
2022-07-30T14:03:11.729Z,25.89
2022-07-30T14:05:42.142Z,27.76
2022-07-30T14:08:11.847Z,29.07
2022-07-30T14:10:40.157Z,28.22
2022-07-30T14:13:10.374Z,27.20
2022-07-30T14:15:46.716Z,26.44
2022-07-30T14:18:14.413Z,25.95
2022-07-30T14:20:45.536Z,25.62
2022-07-30T14:23:16.541Z,25.83
2022-07-30T14:25:44.756Z,27.64
2022-07-30T14:28:12.857Z,29.01
2022-07-30T14:30:40.592Z,28.29
2022-07-30T14:33:08.365Z,27.40
2022-07-30T14:35:36.129Z,26.77
2022-07-30T14:38:04.103Z,26.33
2022-07-30T14:40:31.864Z,25.99
2022-07-30T14:42:59.579Z,25.63
2022-07-30T14:45:30.109Z,25.26
2022-07-30T14:47:57.769Z,25.31
2022-07-30T14:50:25.427Z,26.93
2022-07-30T14:52:53.158Z,28.18
2022-07-30T14:55:20.860Z,27.34
2022-07-30T14:57:48.472Z,26.29
2022-07-30T15:00:16.466Z,25.51
2022-07-30T15:02:44.129Z,24.96
2022-07-30T15:05:11.751Z,24.90
2022-07-30T15:07:39.434Z,26.47
2022-07-30T15:10:08.048Z,27.70
2022-07-30T15:12:37.104Z,26.85
2022-07-30T15:15:08.338Z,25.80
2022-07-30T15:17:38.869Z,25.04
2022-07-30T15:20:09.101Z,24.92
2022-07-30T15:22:36.854Z,26.52
2022-07-30T15:25:05.680Z,27.71
2022-07-30T15:27:34.433Z,26.81
2022-07-30T15:30:03.978Z,25.69
2022-07-30T15:32:31.670Z,24.90
2022-07-30T15:34:59.449Z,24.73
2022-07-30T15:37:27.185Z,26.25
2022-07-30T15:39:54.885Z,27.46
2022-07-30T15:42:22.617Z,26.55
2022-07-30T15:45:14.320Z,25.43
2022-07-30T15:47:38.005Z,24.50
2022-07-30T15:50:06.312Z,24.31
2022-07-30T15:52:36.375Z,25.85
2022-07-30T15:55:05.354Z,27.10
2022-07-30T15:57:33.020Z,26.17
2022-07-30T16:00:00.774Z,25.05
2022-07-30T16:02:28.450Z,24.59
2022-07-30T16:04:56.115Z,25.98
2022-07-30T16:07:24.218Z,27.15
2022-07-30T16:09:51.850Z,26.21
2022-07-30T16:12:19.602Z,25.06
2022-07-30T16:14:47.586Z,24.63
2022-07-30T16:17:16.490Z,26.02
2022-07-30T16:19:44.741Z,27.14
2022-07-30T16:22:14.947Z,26.15
2022-07-30T16:24:50.057Z,24.93
2022-07-30T16:27:17.931Z,24.49
2022-07-30T16:29:45.597Z,25.90
2022-07-30T16:32:13.276Z,27.03
2022-07-30T16:34:40.970Z,26.06
2022-07-30T16:37:09.647Z,24.91
2022-07-30T16:39:37.286Z,24.46
2022-07-30T16:42:05.260Z,25.85
2022-07-30T16:44:34.408Z,26.96
2022-07-30T16:47:02.150Z,25.96
2022-07-30T16:49:30.396Z,24.81
2022-07-30T16:51:58.182Z,24.35
2022-07-30T16:54:25.967Z,25.73
2022-07-30T16:56:53.595Z,26.85
2022-07-30T16:59:21.967Z,25.83
2022-07-30T17:01:49.971Z,24.62
2022-07-30T17:04:17.743Z,24.11
2022-07-30T17:06:45.457Z,25.47
2022-07-30T17:09:15.784Z,26.63
2022-07-30T17:11:47.037Z,25.65
2022-07-30T17:14:22.252Z,24.45
2022-07-30T17:16:50.536Z,24.00
2022-07-30T17:19:18.385Z,25.45
2022-07-30T17:21:46.095Z,26.60
2022-07-30T17:24:13.934Z,25.60
2022-07-30T17:26:43.635Z,24.46
2022-07-30T17:29:14.798Z,23.96
2022-07-30T17:31:44.278Z,25.38
2022-07-30T17:34:14.864Z,26.71
2022-07-30T17:36:51.978Z,25.68
2022-07-30T17:40:27.149Z,24.46
2022-07-30T17:42:11.321Z,23.59
2022-07-30T17:44:41.554Z,23.23
2022-07-30T17:47:15.149Z,24.30
2022-07-30T17:49:44.356Z,27.10
2022-07-30T17:52:12.111Z,27.54
2022-07-30T17:54:40.343Z,26.19
2022-07-30T17:57:08.535Z,24.86
2022-07-30T17:59:36.707Z,23.96
2022-07-30T18:02:05.578Z,23.53
2022-07-30T18:04:34.854Z,26.19
2022-07-30T18:07:03.296Z,26.46
2022-07-30T18:09:37.810Z,25.34
2022-07-30T18:12:07.980Z,24.30
2022-07-30T18:17:04.480Z,26.09
2022-07-30T18:19:32.169Z,26.33
2022-07-30T18:22:02.278Z,25.32
2022-07-30T18:24:30.880Z,24.11
2022-07-30T18:26:58.501Z,23.68
2022-07-30T18:29:26.355Z,24.75
2022-07-30T18:31:54.155Z,26.13
2022-07-30T18:34:21.825Z,25.10
2022-07-30T18:36:51.325Z,23.94
2022-07-30T18:39:19.395Z,23.57
2022-07-30T18:41:47.267Z,25.26
2022-07-30T18:44:14.956Z,26.07
2022-07-30T18:46:42.944Z,25.04
2022-07-30T18:49:34.962Z,23.86
2022-07-30T18:52:01.571Z,23.47
2022-07-30T18:54:31.403Z,25.17
2022-07-30T18:56:59.336Z,26.18
2022-07-30T18:59:28.262Z,25.10
2022-07-30T19:01:56.321Z,23.84
2022-07-30T19:04:24.195Z,23.24
2022-07-30T19:06:51.839Z,24.76
2022-07-30T19:09:19.515Z,26.55
2022-07-30T19:11:47.202Z,27.06
2022-07-30T19:14:15.270Z,25.62
2022-07-30T19:16:43.506Z,24.25
2022-07-30T19:19:13.635Z,23.57
2022-07-30T19:21:41.814Z,24.99
2022-07-30T19:24:10.230Z,25.96
2022-07-30T19:26:39.807Z,24.86
2022-07-30T19:29:08.063Z,23.58
2022-07-30T19:31:35.886Z,22.99
2022-07-30T19:36:31.453Z,26.41
2022-07-30T19:38:59.159Z,26.75
2022-07-30T19:41:40.595Z,25.17
2022-07-30T19:44:09.648Z,23.71
2022-07-30T19:46:39.088Z,23.04
2022-07-30T19:49:12.411Z,23.91
2022-07-30T19:52:11.171Z,26.16
2022-07-30T19:54:28.363Z,26.47
2022-07-30T19:56:55.992Z,24.94
2022-07-30T19:59:45.472Z,24.04
2022-07-30T20:04:43.819Z,26.08
2022-07-30T20:07:12.025Z,27.71
2022-07-30T20:09:43.014Z,27.65
2022-07-30T20:12:12.828Z,25.82
2022-07-30T20:14:43.489Z,23.98
2022-07-30T20:17:11.783Z,23.02
2022-07-30T20:19:47.431Z,23.33
2022-07-30T20:22:17.013Z,24.98
2022-07-30T20:30:05.112Z,27.57
2022-07-30T20:32:32.789Z,25.46
2022-07-30T20:39:57.339Z,26.53
2022-07-30T20:42:25.590Z,26.40
2022-07-30T20:44:54.500Z,25.06
2022-07-30T20:57:57.080Z,27.21
2022-07-30T21:00:31.146Z,25.97
2022-07-30T21:07:59.796Z,27.23
2022-07-30T21:10:28.480Z,26.97
2022-07-30T21:13:03.171Z,25.36
2022-07-30T21:15:36.202Z,23.72
2022-07-30T21:18:13.190Z,23.13
2022-07-30T21:20:40.859Z,23.82
2022-07-30T21:23:20.721Z,26.13
2022-07-30T21:26:00.946Z,26.53
2022-07-30T21:28:35.827Z,24.76
2022-07-30T21:31:07.078Z,23.61
2022-07-30T21:33:38.375Z,24.20
2022-07-30T21:36:10.237Z,26.31
2022-07-30T21:38:41.913Z,26.81
2022-07-30T21:41:14.332Z,25.18
2022-07-30T21:43:44.693Z,24.05
2022-07-30T21:46:13.572Z,24.92
2022-07-30T21:48:45.225Z,26.63
2022-07-30T21:51:13.787Z,27.03
2022-07-30T21:53:44.822Z,25.40
2022-07-30T21:56:14.989Z,24.31
2022-07-30T21:58:44.405Z,25.21
2022-07-30T22:01:17.070Z,26.21
2022-07-30T22:04:03.681Z,24.78
2022-07-30T22:06:40.474Z,23.78
2022-07-30T22:09:19.291Z,25.09
2022-07-30T22:12:09.177Z,26.83
2022-07-30T22:14:38.040Z,27.17
2022-07-30T22:17:06.105Z,25.39
2022-07-30T22:19:51.932Z,23.74
2022-07-30T22:25:09.728Z,24.36
2022-07-30T22:27:39.491Z,26.22
2022-07-30T22:30:10.114Z,26.71
2022-07-30T22:32:38.841Z,25.08
2022-07-30T22:35:07.401Z,23.58
2022-07-30T22:37:35.130Z,22.83
2022-07-30T22:42:36.637Z,25.22
2022-07-30T22:45:44.959Z,26.28
2022-07-30T22:48:10.793Z,24.44
2022-07-30T22:50:40.793Z,23.51
2022-07-30T22:55:58.767Z,26.84
2022-07-30T22:58:29.728Z,27.01
2022-07-30T23:00:57.688Z,24.78
2022-07-30T23:03:25.406Z,23.63
2022-07-30T23:12:32.859Z,23.00
2022-07-30T23:13:28.730Z,26.21
2022-07-30T23:15:56.589Z,24.94
2022-07-30T23:23:19.553Z,25.81
2022-07-30T23:25:47.215Z,25.23
2022-07-30T23:28:15.002Z,23.54
2022-07-30T23:38:05.994Z,24.88
2022-07-30T23:48:02.476Z,27.36
